Time,TemperatureF,DewpointF,PressureIn,WindDirection,WindDirectionDegrees,WindSpeedMPH,WindSpeedGustMPH,Humidity,HourlyPrecipIn,Conditions,Clouds,dailyrainin,SolarRadiationWatts/m^2,SoftwareType,DateUTC
2013-01-09 00:12:00,34.0,32.0,-100.00,North,1,5.0,9.0,92,-99.99,,,0.00,0.230000,,2013-01-09 07:12:00,
2013-01-09 01:12:00,32.0,32.0,-100.00,NE,44,7.0,10.0,100,-99.99,,,0.00,0.230000,,2013-01-09 08:12:00,
2013-01-09 02:12:00,34.0,33.0,-100.00,WSW,255,3.0,14.0,96,-99.99,,,0.00,0.230000,,2013-01-09 09:12:00,
2013-01-09 03:11:00,34.0,31.0,-100.00,NNW,341,5.0,9.0,87,-99.99,,,0.00,0.120000,,2013-01-09 10:11:00,
2013-01-09 04:12:00,32.0,28.0,-100.00,NNE,18,6.0,10.0,86,-99.99,,,0.00,0.000000,,2013-01-09 11:12:00,
2013-01-09 04:42:00,36.0,29.0,-100.00,SSW,207,9.0,15.0,72,-99.99,,,0.00,0.000000,,2013-01-09 11:42:00,
2013-01-09 04:53:00,36.0,29.0,-100.00,SSW,207,9.0,15.0,72,-99.99,,,0.00,0.000000,,2013-01-09 11:53:00,
2013-01-09 05:03:00,36.0,29.0,-100.00,SSW,207,9.0,15.0,72,-99.99,,,0.00,0.000000,,2013-01-09 12:03:00,
2013-01-09 05:12:00,36.0,29.0,-100.00,SSW,207,9.0,15.0,72,-99.99,,,0.00,0.000000,,2013-01-09 12:12:00,
2013-01-09 05:42:00,36.0,28.0,-100.00,SE,134,6.0,20.0,73,-99.99,,,0.00,0.000000,,2013-01-09 12:42:00,
2013-01-09 05:53:00,36.0,28.0,-100.00,SE,134,6.0,20.0,73,-99.99,,,0.00,0.000000,,2013-01-09 12:53:00,
2013-01-09 06:02:00,36.0,28.0,-100.00,SE,134,6.0,20.0,73,-99.99,,,0.00,0.000000,,2013-01-09 13:02:00,
2013-01-09 06:12:00,36.0,28.0,-100.00,SE,134,6.0,20.0,73,-99.99,,,0.00,0.000000,,2013-01-09 13:12:00,
2013-01-09 06:33:00,37.0,29.0,-100.00,SSE,151,11.0,20.0,73,-99.99,,,0.00,0.000000,,2013-01-09 13:33:00,
2013-01-09 06:42:00,37.0,29.0,-100.00,SSE,151,11.0,20.0,73,-99.99,,,0.00,0.000000,,2013-01-09 13:42:00,
2013-01-09 06:53:00,37.0,29.0,-100.00,SSE,151,11.0,20.0,73,-99.99,,,0.00,0.000000,,2013-01-09 13:53:00,
2013-01-09 07:02:00,37.0,29.0,-100.00,SSE,151,11.0,20.0,73,-99.99,,,0.00,0.000000,,2013-01-09 14:02:00,
2013-01-09 07:12:00,37.0,29.0,-100.00,SSE,151,11.0,20.0,73,-99.99,,,0.00,0.000000,,2013-01-09 14:12:00,
2013-01-09 07:43:00,36.0,29.0,-100.00,SW,229,11.0,21.0,74,-99.99,,,0.00,0.000000,,2013-01-09 14:43:00,
2013-01-09 07:53:00,36.0,29.0,-100.00,SW,229,11.0,21.0,74,-99.99,,,0.00,0.000000,,2013-01-09 14:53:00,
2013-01-09 08:03:00,36.0,29.0,-100.00,SW,229,11.0,21.0,74,-99.99,,,0.00,0.000000,,2013-01-09 15:03:00,
2013-01-09 08:12:00,36.0,29.0,-100.00,SW,229,11.0,21.0,74,-99.99,,,0.00,0.000000,,2013-01-09 15:12:00,
2013-01-09 08:42:00,27.0,23.0,-100.00,North,351,5.0,8.0,86,-99.99,,,0.00,10.690000,,2013-01-09 15:42:00,
2013-01-09 08:53:00,27.0,23.0,-100.00,North,351,5.0,8.0,86,-99.99,,,0.00,10.690000,,2013-01-09 15:53:00,
2013-01-09 09:03:00,27.0,23.0,-100.00,North,351,5.0,8.0,86,-99.99,,,0.00,10.690000,,2013-01-09 16:03:00,
2013-01-09 09:12:00,27.0,23.0,-100.00,North,351,5.0,8.0,86,-99.99,,,0.00,10.690000,,2013-01-09 16:12:00,
2013-01-09 09:42:00,24.0,22.0,-100.00,North,0,5.0,7.0,88,-99.99,,,0.00,173.630005,,2013-01-09 16:42:00,
2013-01-09 09:53:00,24.0,22.0,-100.00,North,0,5.0,7.0,88,-99.99,,,0.00,173.630005,,2013-01-09 16:53:00,
2013-01-09 10:02:00,24.0,22.0,-100.00,North,0,5.0,7.0,88,-99.99,,,0.00,173.630005,,2013-01-09 17:02:00,
2013-01-09 10:12:00,24.0,22.0,-100.00,North,0,5.0,7.0,88,-99.99,,,0.00,173.630005,,2013-01-09 17:12:00,
2013-01-09 10:43:00,38.0,29.0,-100.00,SSW,194,13.0,22.0,69,-99.99,,,0.00,338.429993,,2013-01-09 17:43:00,
2013-01-09 10:53:00,38.0,29.0,-100.00,SSW,194,13.0,22.0,69,-99.99,,,0.00,338.429993,,2013-01-09 17:53:00,
2013-01-09 11:03:00,38.0,29.0,-100.00,SSW,194,13.0,22.0,69,-99.99,,,0.00,338.429993,,2013-01-09 18:03:00,
2013-01-09 11:12:00,38.0,29.0,-100.00,SSW,194,13.0,22.0,69,-99.99,,,0.00,338.429993,,2013-01-09 18:12:00,
2013-01-09 11:33:00,38.0,29.0,-100.00,SW,214,9.0,13.0,71,-99.99,,,0.00,413.390015,,2013-01-09 18:33:00,
2013-01-09 11:43:00,38.0,29.0,-100.00,SW,214,9.0,13.0,71,-99.99,,,0.00,413.390015,,2013-01-09 18:43:00,
2013-01-09 11:53:00,38.0,29.0,-100.00,SW,214,9.0,13.0,71,-99.99,,,0.00,413.390015,,2013-01-09 18:53:00,
2013-01-09 12:02:00,38.0,29.0,-100.00,SW,214,9.0,13.0,71,-99.99,,,0.00,413.390015,,2013-01-09 19:02:00,
2013-01-09 12:12:00,38.0,29.0,-100.00,SW,214,9.0,13.0,71,-99.99,,,0.00,413.390015,,2013-01-09 19:12:00,
2013-01-09 13:42:00,41.0,29.0,-100.00,SW,215,3.0,4.0,62,-99.99,,,0.00,426.529999,,2013-01-09 20:42:00,
2013-01-09 13:53:00,41.0,29.0,-100.00,SW,215,3.0,4.0,62,-99.99,,,0.00,426.529999,,2013-01-09 20:53:00,
2013-01-09 14:02:00,41.0,29.0,-100.00,SW,215,3.0,4.0,62,-99.99,,,0.00,426.529999,,2013-01-09 21:02:00,
2013-01-09 14:12:00,41.0,29.0,-100.00,SW,215,3.0,4.0,62,-99.99,,,0.00,426.529999,,2013-01-09 21:12:00,
2013-01-09 14:43:00,39.0,29.0,-100.00,South,178,2.0,4.0,66,-99.99,,,0.00,327.040009,,2013-01-09 21:43:00,
2013-01-09 14:53:00,39.0,29.0,-100.00,South,178,2.0,4.0,66,-99.99,,,0.00,327.040009,,2013-01-09 21:53:00,
2013-01-09 15:03:00,39.0,29.0,-100.00,South,178,2.0,4.0,66,-99.99,,,0.00,327.040009,,2013-01-09 22:03:00,
2013-01-09 15:12:00,39.0,29.0,-100.00,South,178,2.0,4.0,66,-99.99,,,0.00,327.040009,,2013-01-09 22:12:00,
2013-01-09 15:42:00,38.0,29.0,-100.00,NNE,12,3.0,7.0,71,-99.99,,,0.00,186.179993,,2013-01-09 22:42:00,
2013-01-09 15:52:00,38.0,29.0,-100.00,NNE,12,3.0,7.0,71,-99.99,,,0.00,186.179993,,2013-01-09 22:52:00,
2013-01-09 16:02:00,38.0,29.0,-100.00,NNE,12,3.0,7.0,71,-99.99,,,0.00,186.179993,,2013-01-09 23:02:00,
2013-01-09 16:12:00,38.0,29.0,-100.00,NNE,12,3.0,7.0,71,-99.99,,,0.00,186.179993,,2013-01-09 23:12:00,
2013-01-09 16:42:00,33.0,29.0,-100.00,North,355,4.0,8.0,84,-99.99,,,0.00,60.900002,,2013-01-09 23:42:00,
2013-01-09 16:53:00,33.0,29.0,-100.00,North,355,4.0,8.0,84,-99.99,,,0.00,60.900002,,2013-01-09 23:53:00,
2013-01-09 17:02:00,33.0,29.0,-100.00,North,355,4.0,8.0,84,-99.99,,,0.00,60.900002,,2013-01-10 00:02:00,
2013-01-09 17:12:00,33.0,29.0,-100.00,North,355,4.0,8.0,84,-99.99,,,0.00,60.900002,,2013-01-10 00:12:00,
2013-01-09 17:42:00,37.0,28.0,-100.00,SSE,151,4.0,10.0,68,-99.99,,,0.00,3.600000,,2013-01-10 00:42:00,
2013-01-09 17:53:00,37.0,28.0,-100.00,SSE,151,4.0,10.0,68,-99.99,,,0.00,3.600000,,2013-01-10 00:53:00,
2013-01-09 18:02:00,37.0,28.0,-100.00,SSE,151,4.0,10.0,68,-99.99,,,0.00,3.600000,,2013-01-10 01:02:00,
2013-01-09 18:12:00,37.0,28.0,-100.00,SSE,151,4.0,10.0,68,-99.99,,,0.00,3.600000,,2013-01-10 01:12:00,
2013-01-09 18:42:00,41.0,26.0,-100.00,SSW,211,14.0,23.0,55,-99.99,,,0.00,0.000000,,2013-01-10 01:42:00,
2013-01-09 18:53:00,41.0,26.0,-100.00,SSW,211,14.0,23.0,55,-99.99,,,0.00,0.000000,,2013-01-10 01:53:00,
2013-01-09 19:02:00,41.0,26.0,-100.00,SSW,211,14.0,23.0,55,-99.99,,,0.00,0.000000,,2013-01-10 02:02:00,
2013-01-09 19:12:00,41.0,26.0,-100.00,SSW,211,14.0,23.0,55,-99.99,,,0.00,0.000000,,2013-01-10 02:12:00,
2013-01-09 20:02:00,41.0,25.0,-100.00,SSW,207,9.0,22.0,53,-99.99,,,0.00,0.000000,,2013-01-10 03:02:00,
2013-01-09 20:11:00,41.0,25.0,-100.00,SSW,207,9.0,22.0,53,-99.99,,,0.00,0.000000,,2013-01-10 03:11:00,
2013-01-09 21:12:00,34.0,27.0,-100.00,NE,56,7.0,12.0,75,-99.99,,,0.00,0.000000,,2013-01-10 04:12:00,
2013-01-09 22:12:00,31.0,28.0,-100.00,NNE,29,9.0,14.0,88,-99.99,,,0.00,0.000000,,2013-01-10 05:12:00,
2013-01-09 23:11:00,35.0,27.0,-100.00,SE,132,3.0,8.0,73,-99.99,,,0.00,0.000000,,2013-01-10 06:11:00,